createdAt,value
2022-09-06T00:02:07.699Z,4.60
2022-09-06T00:04:35.857Z,4.97
2022-09-06T00:07:05.652Z,4.80
2022-09-06T00:09:33.406Z,4.50
2022-09-06T00:12:01.119Z,4.60
2022-09-06T00:14:28.837Z,4.90
2022-09-06T00:16:56.624Z,4.80
2022-09-06T00:19:24.317Z,4.30
2022-09-06T00:21:52.038Z,5.63
2022-09-06T00:24:21.057Z,4.77
2022-09-06T00:26:48.799Z,4.37
2022-09-06T00:29:16.532Z,4.50
2022-09-06T00:31:44.252Z,4.60
2022-09-06T00:34:12.056Z,4.47
2022-09-06T00:36:39.752Z,4.83
2022-09-06T00:39:07.458Z,4.87
2022-09-06T00:41:36.565Z,4.13
2022-09-06T00:44:05.002Z,4.87
2022-09-06T00:46:34.918Z,5.00
2022-09-06T00:49:06.133Z,4.97
2022-09-06T00:51:35.469Z,4.60
2022-09-06T00:54:04.952Z,4.67
2022-09-06T00:56:34.070Z,4.83
2022-09-06T00:59:03.190Z,4.63
2022-09-06T01:01:31.033Z,4.40
2022-09-06T01:03:59.067Z,4.80
2022-09-06T01:06:37.210Z,4.67
2022-09-06T01:09:12.411Z,5.00
2022-09-06T01:11:53.545Z,4.70
2022-09-06T01:14:36.769Z,4.87
2022-09-06T01:17:13.558Z,4.20
2022-09-06T01:20:19.259Z,4.30
2022-09-06T01:23:09.546Z,5.40
2022-09-06T01:25:42.557Z,5.60
2022-09-06T01:28:34.283Z,4.53
2022-09-06T01:31:17.621Z,4.83
2022-09-06T01:33:51.893Z,4.70
2022-09-06T01:36:24.367Z,5.47
2022-09-06T01:38:52.168Z,5.67
2022-09-06T01:41:19.951Z,4.90
2022-09-06T01:43:52.287Z,4.50
2022-09-06T01:46:32.547Z,4.83
2022-09-06T01:49:25.963Z,4.80
2022-09-06T01:52:06.092Z,5.00
2022-09-06T01:54:47.572Z,4.67
2022-09-06T01:57:32.719Z,5.00
2022-09-06T02:00:08.993Z,4.93
2022-09-06T02:02:46.441Z,4.90
2022-09-06T02:05:22.842Z,5.23
2022-09-06T02:07:54.285Z,4.87
2022-09-06T02:10:26.814Z,4.80
2022-09-06T02:12:58.934Z,5.37
2022-09-06T02:15:31.927Z,4.90
2022-09-06T02:18:05.648Z,5.10
2022-09-06T02:20:36.407Z,5.03
2022-09-06T02:23:06.737Z,4.90
2022-09-06T02:25:38.602Z,5.30
2022-09-06T02:28:08.371Z,5.10
2022-09-06T02:30:40.976Z,5.23
2022-09-06T02:33:13.695Z,5.17
2022-09-06T02:35:46.090Z,5.47
2022-09-06T02:38:14.135Z,4.43
2022-09-06T02:40:42.979Z,4.60
2022-09-06T02:43:10.760Z,4.53
2022-09-06T02:45:39.976Z,4.70
2022-09-06T02:48:07.745Z,4.67
2022-09-06T02:50:35.612Z,5.30
2022-09-06T02:53:05.296Z,5.00
2022-09-06T02:55:33.926Z,4.70
2022-09-06T02:58:01.651Z,5.43
2022-09-06T03:00:30.149Z,5.87
2022-09-06T03:02:59.657Z,7.20
2022-09-06T03:05:28.866Z,5.70
2022-09-06T03:07:56.856Z,6.17
2022-09-06T03:10:26.199Z,6.17
2022-09-06T03:12:54.341Z,6.63
2022-09-06T03:15:22.601Z,6.57
2022-09-06T03:17:50.391Z,6.80
2022-09-06T03:20:19.599Z,6.67
2022-09-06T03:22:48.123Z,7.27
2022-09-06T03:25:15.907Z,6.70
2022-09-06T03:27:44.734Z,6.20
2022-09-06T03:30:13.270Z,6.77
2022-09-06T03:32:40.976Z,5.80
2022-09-06T03:35:09.266Z,7.40
2022-09-06T03:37:38.622Z,6.70
2022-09-06T03:40:07.614Z,6.90
2022-09-06T03:42:35.381Z,6.13
2022-09-06T03:45:03.137Z,6.03
2022-09-06T03:47:30.869Z,5.70
2022-09-06T03:49:58.575Z,6.00
2022-09-06T03:52:26.329Z,7.70
2022-09-06T03:54:55.407Z,7.20
2022-09-06T03:57:23.118Z,7.17
2022-09-06T03:59:50.807Z,6.87
2022-09-06T04:02:18.815Z,6.60
2022-09-06T04:04:46.569Z,6.23
2022-09-06T04:07:14.252Z,6.37
2022-09-06T04:09:42.040Z,6.20
2022-09-06T04:12:11.111Z,6.57
2022-09-06T04:14:38.784Z,6.00
2022-09-06T04:17:06.801Z,6.67
2022-09-06T04:19:34.510Z,6.37
2022-09-06T04:22:02.208Z,7.33
2022-09-06T04:24:29.951Z,7.40
2022-09-06T04:26:57.713Z,7.93
2022-09-06T04:29:26.887Z,6.83
2022-09-06T04:31:54.679Z,6.73
2022-09-06T04:34:22.538Z,7.73
2022-09-06T04:36:50.293Z,6.30
2022-09-06T04:39:18.046Z,6.03
2022-09-06T04:41:45.750Z,7.37
2022-09-06T04:44:13.479Z,6.93
2022-09-06T04:46:43.553Z,6.70
2022-09-06T04:49:11.350Z,6.63
2022-09-06T04:51:39.624Z,7.40
2022-09-06T04:54:07.733Z,7.00
2022-09-06T04:56:35.527Z,7.20
2022-09-06T04:59:03.351Z,6.00
2022-09-06T05:01:31.115Z,6.73
2022-09-06T05:04:00.186Z,6.67
2022-09-06T05:06:28.017Z,5.83
2022-09-06T05:08:55.762Z,6.23
2022-09-06T05:11:23.494Z,9.50
2022-09-06T05:13:51.320Z,6.83
2022-09-06T05:16:19.204Z,6.73
2022-09-06T05:18:47.003Z,6.70
2022-09-06T05:21:16.073Z,6.50
2022-09-06T05:23:43.974Z,7.47
2022-09-06T05:26:11.896Z,7.00
2022-09-06T05:28:39.595Z,7.40
2022-09-06T05:31:09.223Z,7.53
2022-09-06T05:33:37.383Z,7.20
2022-09-06T05:36:06.513Z,6.13
2022-09-06T05:38:35.820Z,6.90
2022-09-06T05:41:03.639Z,7.30
2022-09-06T05:43:31.334Z,7.23
2022-09-06T05:45:59.115Z,6.77
2022-09-06T05:48:26.855Z,7.90
2022-09-06T05:51:01.563Z,7.23
2022-09-06T05:53:36.805Z,7.37
2022-09-06T05:56:05.565Z,7.10
2022-09-06T05:58:33.700Z,7.03
2022-09-06T06:01:09.503Z,7.80
2022-09-06T06:03:37.286Z,6.43
2022-09-06T06:06:05.178Z,7.50
2022-09-06T06:08:33.042Z,7.30
2022-09-06T06:11:02.956Z,7.00
2022-09-06T06:13:34.877Z,7.47
2022-09-06T06:16:03.622Z,6.87
2022-09-06T06:18:31.399Z,7.53
2022-09-06T06:21:12.283Z,6.83
2022-09-06T06:23:40.896Z,7.57
2022-09-06T06:26:11.798Z,7.47
2022-09-06T06:28:40.684Z,7.80
2022-09-06T06:31:12.132Z,7.97
2022-09-06T06:33:40.377Z,7.60
2022-09-06T06:36:20.648Z,7.83
2022-09-06T06:38:49.424Z,7.83
2022-09-06T06:41:20.306Z,7.53
2022-09-06T06:43:48.095Z,8.60
2022-09-06T06:46:17.916Z,6.90
2022-09-06T06:48:49.477Z,7.53
2022-09-06T06:51:21.685Z,7.70
2022-09-06T06:53:49.807Z,8.30
2022-09-06T06:56:21.381Z,7.77
2022-09-06T06:58:52.248Z,7.23
2022-09-06T07:01:21.995Z,7.87
2022-09-06T07:03:51.076Z,6.90
2022-09-06T07:06:20.263Z,6.47
2022-09-06T07:08:48.865Z,7.00
2022-09-06T07:11:20.529Z,7.07
2022-09-06T07:13:52.144Z,6.20
2022-09-06T07:16:21.623Z,6.40
2022-09-06T07:18:52.713Z,7.17
2022-09-06T07:21:37.617Z,6.23
2022-09-06T07:24:09.313Z,5.33
2022-09-06T07:26:39.538Z,6.03
2022-09-06T07:29:09.443Z,5.57
2022-09-06T07:34:26.791Z,5.30
2022-09-06T07:36:55.326Z,4.90
2022-09-06T07:39:23.518Z,5.20
2022-09-06T07:41:51.549Z,5.80
2022-09-06T07:44:20.706Z,4.97
2022-09-06T07:46:48.505Z,4.60
2022-09-06T07:49:16.294Z,4.80
2022-09-06T07:51:44.380Z,5.00
2022-09-06T07:54:30.822Z,4.13
2022-09-06T07:56:59.036Z,4.30
2022-09-06T07:59:28.177Z,4.70
2022-09-06T08:01:55.976Z,5.10
2022-09-06T08:04:23.801Z,4.70
2022-09-06T08:09:41.344Z,4.57
2022-09-06T08:12:09.679Z,4.60
2022-09-06T08:14:38.740Z,4.17
2022-09-06T08:17:06.559Z,4.10
2022-09-06T08:19:34.544Z,4.10
2022-09-06T08:22:02.341Z,3.73
2022-09-06T08:24:30.451Z,4.40
2022-09-06T08:26:58.188Z,4.40
2022-09-06T08:29:26.966Z,4.17
2022-09-06T08:31:56.169Z,3.63
2022-09-06T08:34:23.903Z,4.30
2022-09-06T08:36:51.895Z,3.93
2022-09-06T08:39:19.779Z,4.37
2022-09-06T08:41:52.578Z,4.10
2022-09-06T08:47:16.649Z,4.30
2022-09-06T08:49:46.151Z,4.60
2022-09-06T08:52:24.645Z,3.70
2022-09-06T08:54:59.882Z,4.10
2022-09-06T08:57:44.882Z,4.10
2022-09-06T09:00:15.130Z,4.17
2022-09-06T09:02:47.102Z,4.37
2022-09-06T09:05:22.850Z,4.30
2022-09-06T09:08:01.325Z,4.07
2022-09-06T09:10:32.075Z,4.20
2022-09-06T09:13:02.878Z,4.20
2022-09-06T09:15:40.461Z,3.50
2022-09-06T09:18:09.814Z,4.10
2022-09-06T09:20:39.134Z,4.30
2022-09-06T09:23:06.957Z,3.97
2022-09-06T09:25:35.978Z,4.40
2022-09-06T09:28:04.153Z,4.87
2022-09-06T09:30:49.411Z,4.70
2022-09-06T09:33:28.936Z,5.30
2022-09-06T09:35:58.971Z,4.60
2022-09-06T09:38:28.869Z,4.17
2022-09-06T09:41:02.677Z,5.07
2022-09-06T09:43:32.686Z,4.33
2022-09-06T09:46:12.415Z,3.83
2022-09-06T09:48:44.770Z,4.07
2022-09-06T09:51:27.473Z,4.37
2022-09-06T09:53:57.626Z,4.23
2022-09-06T09:56:35.043Z,4.70
2022-09-06T09:59:04.708Z,3.80
2022-09-06T10:01:34.132Z,4.70
2022-09-06T10:07:09.846Z,4.13
2022-09-06T10:09:40.565Z,4.33
2022-09-06T10:12:08.788Z,3.93
2022-09-06T10:14:43.086Z,3.30
2022-09-06T10:17:21.353Z,3.90
2022-09-06T10:19:50.576Z,3.67
2022-09-06T10:22:29.170Z,4.20
2022-09-06T10:25:29.696Z,3.27
2022-09-06T10:28:22.291Z,4.00
2022-09-06T10:31:02.402Z,3.23
2022-09-06T10:33:40.023Z,3.60
2022-09-06T10:36:15.966Z,3.73
2022-09-06T10:38:53.665Z,3.67
2022-09-06T10:41:47.108Z,3.03
2022-09-06T10:44:27.004Z,3.80
2022-09-06T10:47:03.657Z,4.27
2022-09-06T10:49:34.596Z,4.20
2022-09-06T10:52:07.214Z,3.50
2022-09-06T10:54:38.744Z,4.00
2022-09-06T11:00:03.926Z,4.23
2022-09-06T11:02:40.838Z,4.73
2022-09-06T11:10:55.620Z,5.47
2022-09-06T11:13:25.813Z,4.47
2022-09-06T11:15:58.925Z,5.23
2022-09-06T11:18:32.349Z,4.20
2022-09-06T11:21:31.191Z,5.27
2022-09-06T11:24:10.911Z,4.90
2022-09-06T11:26:44.400Z,4.37
2022-09-06T11:29:19.528Z,4.30
2022-09-06T11:34:44.093Z,4.07
2022-09-06T11:37:27.168Z,5.00
2022-09-06T11:43:17.153Z,4.80
2022-09-06T11:45:47.868Z,4.33
2022-09-06T11:48:46.758Z,4.70
2022-09-06T11:51:33.485Z,4.90
2022-09-06T11:54:13.198Z,4.00
2022-09-06T11:56:52.816Z,4.37
2022-09-06T11:59:34.614Z,4.20
2022-09-06T12:02:04.083Z,4.13
2022-09-06T12:05:25.582Z,4.43
2022-09-06T12:08:31.930Z,4.40
2022-09-06T12:11:06.006Z,3.80
2022-09-06T12:13:40.325Z,4.67
2022-09-06T12:16:09.168Z,4.03
2022-09-06T12:18:57.879Z,4.50
2022-09-06T12:21:38.297Z,3.87
2022-09-06T12:24:07.235Z,4.30
2022-09-06T12:26:55.346Z,3.70
2022-09-06T12:29:27.219Z,3.80
2022-09-06T12:31:57.799Z,3.63
2022-09-06T12:34:28.218Z,4.17
2022-09-06T12:36:59.190Z,3.60
2022-09-06T12:39:27.636Z,3.70
2022-09-06T12:41:58.226Z,4.00
2022-09-06T12:44:34.655Z,4.20
2022-09-06T12:47:08.265Z,3.70
2022-09-06T12:49:35.926Z,4.60
2022-09-06T12:52:12.827Z,4.10
2022-09-06T12:54:48.571Z,3.90
2022-09-06T12:57:21.413Z,4.13
2022-09-06T12:59:53.647Z,3.47
2022-09-06T13:02:29.138Z,3.83
2022-09-06T13:05:05.371Z,4.47
2022-09-06T13:07:35.386Z,4.43
2022-09-06T13:10:04.001Z,4.50
2022-09-06T13:12:35.365Z,5.00
2022-09-06T13:15:09.018Z,5.33
2022-09-06T13:17:38.398Z,5.10
2022-09-06T13:20:16.368Z,5.30
2022-09-06T13:22:47.424Z,5.10
2022-09-06T13:25:20.690Z,5.10
2022-09-06T13:27:51.117Z,4.37
2022-09-06T13:30:38.588Z,5.00
2022-09-06T13:33:07.876Z,4.80
2022-09-06T13:35:38.181Z,5.20
2022-09-06T13:38:32.583Z,4.77
2022-09-06T13:41:16.911Z,5.67
2022-09-06T13:43:47.649Z,5.77
2022-09-06T13:46:16.805Z,5.17
2022-09-06T13:48:45.039Z,5.17
2022-09-06T13:51:12.978Z,5.10
2022-09-06T13:53:40.653Z,5.60
2022-09-06T13:56:10.390Z,5.73
2022-09-06T13:58:38.056Z,5.60
2022-09-06T14:01:08.631Z,5.40
2022-09-06T14:03:40.851Z,8.60
2022-09-06T14:06:09.518Z,6.27
2022-09-06T14:09:03.397Z,5.77
2022-09-06T14:11:27.143Z,5.20
2022-09-06T14:13:55.035Z,5.97
2022-09-06T14:16:22.982Z,6.50
2022-09-06T14:18:52.982Z,6.80
2022-09-06T14:21:21.172Z,6.07
2022-09-06T14:23:51.493Z,5.57
2022-09-06T14:26:21.043Z,5.57
2022-09-06T14:28:48.937Z,5.33
2022-09-06T14:31:18.997Z,5.27
2022-09-06T14:33:47.130Z,5.43
2022-09-06T14:36:17.874Z,5.50
2022-09-06T14:38:46.100Z,5.67
2022-09-06T14:41:15.497Z,5.50
2022-09-06T14:43:44.718Z,5.63
2022-09-06T14:46:14.722Z,5.70
2022-09-06T14:48:43.228Z,6.20
2022-09-06T14:51:13.526Z,6.70
2022-09-06T14:53:44.157Z,6.23
2022-09-06T14:56:13.304Z,6.60
2022-09-06T14:58:41.842Z,5.90
2022-09-06T15:01:11.816Z,6.00
2022-09-06T15:03:40.734Z,5.87
2022-09-06T15:06:09.195Z,5.80
2022-09-06T15:08:37.765Z,5.87
2022-09-06T15:11:08.356Z,6.00
2022-09-06T15:13:37.430Z,5.13
2022-09-06T15:16:05.721Z,5.30
2022-09-06T15:18:33.610Z,5.70
2022-09-06T15:21:10.210Z,5.10
2022-09-06T15:23:38.261Z,5.23
2022-09-06T15:26:09.394Z,4.80
2022-09-06T15:28:37.751Z,4.97
2022-09-06T15:31:06.484Z,5.07
2022-09-06T15:33:36.363Z,5.37
2022-09-06T15:36:06.931Z,5.13
2022-09-06T15:38:34.879Z,4.50
2022-09-06T15:41:08.722Z,4.60
2022-09-06T15:43:37.320Z,4.97
2022-09-06T15:46:05.400Z,4.87
2022-09-06T15:48:41.764Z,4.13
2022-09-06T15:51:10.477Z,4.97
2022-09-06T15:53:38.636Z,4.97
2022-09-06T15:56:09.107Z,4.10
2022-09-06T15:58:37.010Z,3.87
2022-09-06T16:01:08.031Z,5.13
2022-09-06T16:03:41.924Z,4.30
2022-09-06T16:06:27.913Z,4.70
2022-09-06T16:08:59.691Z,4.80
2022-09-06T16:11:30.221Z,4.33
2022-09-06T16:13:58.051Z,5.07
2022-09-06T16:16:26.258Z,5.37
2022-09-06T16:18:54.102Z,9.27
2022-09-06T16:21:24.618Z,4.30
2022-09-06T16:23:54.261Z,4.30
2022-09-06T16:26:22.793Z,4.50
2022-09-06T16:28:53.212Z,3.70
2022-09-06T16:31:22.657Z,4.57
2022-09-06T16:33:51.134Z,4.40
2022-09-06T16:36:19.791Z,4.47
2022-09-06T16:38:48.668Z,3.90
2022-09-06T16:41:19.840Z,4.60
2022-09-06T16:43:49.281Z,3.90
2022-09-06T16:46:18.551Z,4.50
2022-09-06T16:48:52.204Z,4.30
2022-09-06T16:51:21.835Z,3.77
2022-09-06T16:53:50.420Z,3.50
2022-09-06T16:56:19.993Z,4.07
2022-09-06T16:58:52.039Z,3.60
2022-09-06T17:01:21.715Z,4.00
2022-09-06T17:03:49.964Z,3.60
2022-09-06T17:06:18.335Z,3.60
2022-09-06T17:08:46.975Z,3.70
2022-09-06T17:11:16.697Z,5.00
2022-09-06T17:13:46.249Z,4.20
2022-09-06T17:16:32.186Z,3.90
2022-09-06T17:19:02.366Z,4.00
2022-09-06T17:21:31.213Z,4.40
2022-09-06T17:24:05.361Z,4.27
2022-09-06T17:26:34.579Z,4.43
2022-09-06T17:29:02.501Z,4.30
2022-09-06T17:31:30.450Z,5.03
2022-09-06T17:33:59.545Z,4.73
2022-09-06T17:36:30.913Z,4.90
2022-09-06T17:39:03.290Z,5.00
2022-09-06T17:41:36.499Z,5.17
2022-09-06T17:44:05.589Z,4.73
2022-09-06T17:46:33.498Z,5.20
2022-09-06T17:49:01.423Z,4.93
2022-09-06T17:51:31.068Z,4.60
2022-09-06T17:53:59.660Z,4.47
2022-09-06T17:56:28.998Z,4.20
2022-09-06T17:58:59.291Z,4.57
2022-09-06T18:01:30.485Z,5.47
2022-09-06T18:03:59.146Z,5.27
2022-09-06T18:06:28.931Z,4.97
2022-09-06T18:09:03.623Z,5.00
2022-09-06T18:11:33.882Z,5.33
2022-09-06T18:14:03.591Z,5.53
2022-09-06T18:16:33.025Z,5.27
2022-09-06T18:19:02.834Z,5.90
2022-09-06T18:21:32.175Z,5.90
2022-09-06T18:24:01.330Z,5.60
2022-09-06T18:26:29.244Z,5.93
2022-09-06T18:28:57.235Z,5.93
2022-09-06T18:31:26.802Z,5.90
2022-09-06T18:33:57.998Z,5.63
2022-09-06T18:36:31.172Z,6.17
2022-09-06T18:39:03.952Z,6.07
2022-09-06T18:41:49.747Z,6.20
2022-09-06T18:44:18.274Z,7.50
2022-09-06T18:46:46.330Z,6.50
2022-09-06T18:49:15.031Z,7.17
2022-09-06T18:51:44.610Z,6.00
2022-09-06T18:54:14.532Z,5.03
2022-09-06T18:56:44.749Z,6.20
2022-09-06T18:59:13.726Z,6.00
2022-09-06T19:01:42.714Z,6.77
2022-09-06T19:04:11.657Z,5.77
2022-09-06T19:06:41.310Z,7.07
2022-09-06T19:09:11.353Z,5.80
2022-09-06T19:11:43.310Z,6.80
2022-09-06T19:14:11.166Z,6.37
2022-09-06T19:16:39.316Z,6.27
2022-09-06T19:19:09.841Z,6.63
2022-09-06T19:21:41.763Z,6.70
2022-09-06T19:24:12.082Z,6.33
2022-09-06T19:26:43.328Z,6.73
2022-09-06T19:29:15.029Z,6.13
2022-09-06T19:31:44.108Z,5.50
2022-09-06T19:34:15.256Z,6.50
2022-09-06T19:36:43.830Z,5.70
2022-09-06T19:39:15.662Z,5.13
2022-09-06T19:41:46.930Z,5.77
2022-09-06T19:44:15.748Z,5.20
2022-09-06T19:46:46.620Z,6.13
2022-09-06T19:49:15.622Z,6.10
2022-09-06T19:51:45.199Z,5.73
2022-09-06T19:54:15.274Z,5.70
2022-09-06T19:56:45.342Z,5.90
2022-09-06T19:59:14.215Z,6.20
2022-09-06T20:01:43.798Z,5.80
2022-09-06T20:04:12.872Z,7.10
2022-09-06T20:06:40.985Z,6.43
2022-09-06T20:09:10.681Z,5.40
2022-09-06T20:11:39.811Z,4.63
2022-09-06T20:14:09.442Z,4.37
2022-09-06T20:16:41.349Z,4.03
2022-09-06T20:19:11.963Z,4.00
2022-09-06T20:21:39.934Z,3.30
2022-09-06T20:24:07.911Z,4.43
2022-09-06T20:26:35.762Z,4.03
2022-09-06T20:29:05.443Z,3.77
2022-09-06T20:31:36.307Z,4.17
2022-09-06T20:34:05.934Z,4.23
2022-09-06T20:36:34.175Z,4.50
2022-09-06T20:39:02.122Z,4.07
2022-09-06T20:41:30.274Z,4.20
2022-09-06T20:43:59.623Z,3.73
2022-09-06T20:46:29.482Z,3.77
2022-09-06T20:49:03.658Z,3.70
2022-09-06T20:51:32.958Z,4.20
2022-09-06T20:54:02.457Z,3.90
2022-09-06T20:56:33.229Z,4.33
2022-09-06T20:59:03.070Z,4.70
2022-09-06T21:01:34.578Z,4.20
2022-09-06T21:04:06.334Z,4.70
2022-09-06T21:06:36.116Z,4.70
2022-09-06T21:09:05.334Z,4.03
2022-09-06T21:11:33.237Z,4.67
2022-09-06T21:14:01.271Z,4.70
2022-09-06T21:16:30.445Z,5.00
2022-09-06T21:19:00.874Z,5.60
2022-09-06T21:21:31.629Z,4.93
2022-09-06T21:24:00.910Z,4.90
2022-09-06T21:26:28.736Z,5.40
2022-09-06T21:28:56.517Z,4.80
2022-09-06T21:31:25.878Z,4.63
2022-09-06T21:33:55.738Z,5.00
2022-09-06T21:36:24.844Z,5.10
2022-09-06T21:38:56.461Z,5.70
2022-09-06T21:41:24.929Z,6.10
2022-09-06T21:43:53.750Z,4.70
2022-09-06T21:46:23.428Z,4.63
2022-09-06T21:48:52.852Z,5.13
2022-09-06T21:51:23.345Z,5.10
2022-09-06T21:53:52.525Z,5.67
2022-09-06T21:56:23.769Z,5.17
2022-09-06T21:58:53.012Z,5.40
2022-09-06T22:01:21.535Z,5.00
2022-09-06T22:03:49.411Z,5.40
2022-09-06T22:06:19.947Z,5.60
2022-09-06T22:08:48.832Z,5.20
2022-09-06T22:11:18.471Z,5.30
2022-09-06T22:13:48.489Z,4.80
2022-09-06T22:16:18.629Z,5.07
2022-09-06T22:18:48.737Z,5.10
2022-09-06T22:21:20.163Z,5.07
2022-09-06T22:23:51.834Z,4.80
2022-09-06T22:26:20.564Z,5.00
2022-09-06T22:28:54.243Z,4.83
2022-09-06T22:31:22.370Z,5.23
2022-09-06T22:33:50.771Z,4.27
2022-09-06T22:36:18.804Z,4.33
2022-09-06T22:38:46.949Z,4.10
2022-09-06T22:41:15.232Z,4.60
2022-09-06T22:43:43.017Z,3.60
2022-09-06T22:46:12.724Z,3.80
2022-09-06T22:48:41.094Z,3.70
2022-09-06T22:51:08.883Z,3.63
2022-09-06T22:53:37.140Z,3.83
2022-09-06T22:56:05.763Z,3.77
2022-09-06T22:58:35.192Z,3.47
2022-09-06T23:01:08.580Z,3.47
2022-09-06T23:03:37.940Z,2.87
2022-09-06T23:06:06.481Z,2.70
2022-09-06T23:08:36.107Z,2.87
2022-09-06T23:11:09.333Z,3.43
2022-09-06T23:13:37.167Z,2.60
2022-09-06T23:16:06.507Z,3.07
2022-09-06T23:18:34.893Z,2.80
2022-09-06T23:21:07.925Z,3.40
2022-09-06T23:23:36.416Z,3.30
2022-09-06T23:26:05.811Z,3.10
2022-09-06T23:28:33.560Z,2.77
2022-09-06T23:31:02.903Z,3.07
2022-09-06T23:33:31.444Z,2.90
2022-09-06T23:35:59.465Z,3.27
2022-09-06T23:38:29.005Z,3.20
2022-09-06T23:40:56.971Z,3.37
2022-09-06T23:43:24.749Z,2.50
2022-09-06T23:45:52.572Z,3.07
2022-09-06T23:48:20.425Z,3.00
2022-09-06T23:50:48.636Z,2.53
2022-09-06T23:53:17.900Z,2.70
2022-09-06T23:55:47.219Z,3.00
2022-09-06T23:58:15.246Z,3.37
